Data for 05/07/2013

Time Sea-Level Adjusted Pressure Absolute Pressure Temperature Relative Humidity Dew Point   
(mb) (inHg) (mb) (inHg) (C) (F) (%) (C) (F)
00:05 1015 29.97 844 24.92 12.4 54.4 36 -2.1 28.2
00:10 1015 29.97 844 24.92 12.3 54.1 37 -2 28.4
00:15 1015 29.97 844 24.92 12 53.5 38 -1.8 28.8
00:20 1015 29.97 844 24.92 11.7 53 39 -1.9 28.6
00:25 1015 29.97 844 24.92 11.6 52.8 40 -1.6 29
00:30 1015 29.97 844 24.92 11.3 52.3 41 -1.6 29.2
00:35 1015 29.97 844 24.92 11.1 51.9 41 -1.7 28.9
00:40 1015 29.97 844 24.92 11.1 52 41 -1.6 29.1
00:45 1015 29.97 844 24.92 11 51.8 41 -1.7 28.9
00:50 1015 29.97 844 24.92 11 51.8 42 -1.5 29.4
00:55 1015 29.97 844 24.92 10.6 51.1 43 -1.3 29.7
01:00 1015 29.97 844 24.92 10.4 50.6 45 -1 30.2
01:05 1015 29.97 844 24.92 10.2 50.3 44 -1.3 29.6
01:10 1015 29.97 844 24.92 10.3 50.6 45 -1.2 29.9
01:15 1015 29.97 844 24.92 10.2 50.4 45 -1.2 29.8
01:20 1015 29.97 844 24.92 10.2 50.3 44 -1.3 29.6
01:25 1015 29.97 844 24.92 10.3 50.6 44 -1.3 29.7
01:30 1015 29.97 844 24.92 10.4 50.7 44 -1.4 29.4
01:35 1015 29.97 844 24.92 10.6 51.1 44 -1.1 30
01:40 1015 29.97 844 24.92 10.4 50.7 45 -1 30.2
01:45 1015 29.97 844 24.92 10.2 50.3 46 -1 30.3
01:50 1015 29.97 844 24.92 9.9 49.8 47 -1 30.3
01:55 1015 29.97 844 24.92 9.8 49.6 47 -1 30.2
02:00 1015 29.97 844 24.92 9.7 49.5 48 -0.7 30.8
02:05 1015 29.97 844 24.92 9.3 48.7 50 -0.7 30.8
02:10 1015 29.97 844 24.92 9.2 48.6 49 -0.8 30.5
02:15 1015 29.97 844 24.92 9.2 48.6 50 -0.7 30.8
02:20 1015 29.97 844 24.92 9.2 48.5 50 -0.6 31
02:25 1015 29.97 844 24.92 9.2 48.5 49 -0.9 30.4
02:30 1015 29.97 844 24.92 9.6 49.2 49 -0.6 30.9
02:35 1015 29.97 844 24.92 9.4 48.9 50 -0.5 31.1
02:40 1015 29.97 844 24.92 9.1 48.4 51 -0.5 31.1
02:45 1015 29.97 844 24.92 8.9 48 52 -0.5 31.1
02:50 1015 29.97 844 24.92 8.8 47.9 52 -0.5 31.2
02:55 1015 29.97 844 24.92 8.7 47.6 52 -0.5 31.1
03:00 1015 29.97 844 24.92 8.6 47.5 53 -0.5 31.1
03:05 1015 29.97 844 24.92 8.5 47.2 53 -0.6 31
03:10 1015 29.97 844 24.92 8.3 46.9 54 -0.5 31.1
03:15 1015 29.97 844 24.92 7.8 46 57 -0.3 31.5
03:20 1015 29.97 844 24.92 7.4 45.3 56 -0.7 30.7
03:25 1015 29.97 844 24.92 8 46.4 53 -0.9 30.4
03:30 1015 29.97 844 24.92 8 46.5 56 -0.2 31.6
03:35 1015 29.97 844 24.92 7.3 45.2 58 -0.3 31.5
03:40 1015 29.97 844 24.92 6.8 44.3 60 -0.3 31.4
03:45 1015 29.97 844 24.92 6.6 43.9 60 -0.5 31.1
03:50 1015 29.97 844 24.92 6.5 43.7 61 -0.4 31.4
03:55 1015 29.97 844 24.92 6.5 43.7 59 -0.8 30.5
04:00 1015 29.97 844 24.92 7.1 44.7 57 -0.9 30.3
04:05 1015 29.97 844 24.92 7.3 45.2 56 -0.9 30.4
04:10 1015 29.97 844 24.92 7.5 45.5 55 -0.9 30.3
04:15 1015 29.97 844 24.92 7.6 45.6 56 -0.6 30.9
04:20 1015 29.97 844 24.92 7.4 45.4 56 -0.7 30.7
04:25 1015 29.97 844 24.92 7.3 45.1 57 -0.7 30.8
04:30 1015 29.97 844 24.92 7.1 44.7 57 -0.9 30.4
04:35 1015 29.97 844 24.92 7 44.7 57 -0.8 30.6
04:40 1015 29.97 844 24.92 7 44.7 57 -0.8 30.5
04:45 1015 29.97 844 24.92 7.2 45 56 -0.9 30.4
04:50 1015 29.97 844 24.92 7.3 45.1 56 -0.9 30.5
04:55 1015 29.97 844 24.92 7.3 45.2 56 -0.9 30.4
05:00 1015 29.97 844 24.92 7.3 45.2 56 -0.8 30.5
05:05 1015 29.97 844 24.92 7.3 45.1 57 -0.7 30.7
05:10 1015 29.97 844 24.92 7.1 44.8 57 -0.8 30.6
05:15 1015 29.97 844 24.92 7 44.7 57 -0.8 30.5
05:20 1015 29.97 844 24.92 7.1 44.8 57 -0.9 30.3
05:25 1015 29.97 844 24.92 7.2 44.9 57 -0.8 30.6
05:30 1015 29.97 845 24.95 6.9 44.4 58 -0.8 30.5
05:35 1015 29.97 845 24.95 6.9 44.4 57 -1.1 30.1
05:40 1015 29.97 845 24.95 7.2 44.9 55 -1.2 29.9
05:45 1015 29.97 845 24.95 7.4 45.2 54 -1.4 29.4
05:50 1015 29.97 845 24.95 7.9 46.1 53 -1.1 30
05:55 1015 29.97 845 24.95 8 46.4 52 -1.1 30
06:00 1015 29.97 845 24.95 8.1 46.6 53 -0.9 30.5
06:05 1016 30 845 24.95 8.1 46.7 53 -0.9 30.4
06:10 1016 30 845 24.95 8.1 46.5 54 -0.6 30.9
06:15 1016 30 845 24.95 8 46.5 54 -0.7 30.8
06:20 1016 30 845 24.95 8.3 46.9 54 -0.5 31.1
06:25 1016 30 845 24.95 8.8 47.8 52 -0.6 31
06:30 1016 30 845 24.95 9.1 48.4 51 -0.5 31.2
06:35 1016 30 845 24.95 9.2 48.5 52 -0.2 31.7
06:40 1016 30 845 24.95 9.2 48.6 52 -0.2 31.6
06:45 1016 30 845 24.95 9.5 49 51 -0.1 31.8
06:50 1016 30 845 24.95 10 50 50 -0 31.9
06:55 1016 30 845 24.95 10.6 51.1 46 -0.3 31.4
07:00 1016 30 845 24.95 11.3 52.3 45 -0.1 31.9
07:05 1016 30 845 24.95 11.7 53 44 -0.2 31.6
07:10 1016 30 845 24.95 12 53.7 43 -0.2 31.6
07:15 1016 30 845 24.95 12.3 54.2 40 -0.8 30.6
07:20 1016 30 845 24.95 13.1 55.5 40 -0.2 31.6
07:25 1016 30 845 24.95 13.3 55.9 39 -0.4 31.2
07:30 1016 30 845 24.95 13.9 57.1 37 -0.4 31.3
07:35 1016 30 845 24.95 13.5 56.4 39 -0.2 31.6
07:40 1016 30 845 24.95 13.7 56.7 37 -0.8 30.6
07:45 1016 30 845 24.95 14 57.1 37 -0.5 31.1
07:50 1016 30 845 24.95 14.1 57.3 36 -0.5 31
07:55 1016 30 845 24.95 14 57.2 37 -0.5 31
08:00 1016 30 845 24.95 14.6 58.3 35 -0.6 30.9
08:05 1016 30 845 24.95 14.8 58.6 34 -0.7 30.7
08:10 1016 30 845 24.95 15.2 59.4 34 -0.5 31.1
08:15 1016 30 845 24.95 15.4 59.7 33 -0.7 30.8
08:20 1016 30 845 24.95 16 60.7 32 -0.5 31.1
08:25 1016 30 845 24.95 16 60.7 32 -0.4 31.2
08:30 1016 30 845 24.95 16.4 61.5 32 -0.3 31.5
08:35 1016 30 845 24.95 16.8 62.3 31 -0.1 31.8
08:40 1016 30 845 24.95 16.8 62.2 31 -0.1 31.7
08:45 1015 29.97 845 24.95 17.3 63.1 30 -0.5 31.1
08:50 1016 30 845 24.95 17.6 63.7 28 -0.9 30.4
08:55 1016 30 845 24.95 17.7 63.8 28 -1 30.3
09:00 1015 29.97 845 24.95 18.1 64.7 28 -0.6 30.9
09:05 1016 30 845 24.95 18.4 65.2 27 -0.7 30.8
09:10 1016 30 845 24.95 18.5 65.4 27 -0.9 30.3
09:15 1016 30 845 24.95 17.6 63.7 29 -0.4 31.3
09:20 1015 29.97 845 24.95 17.4 63.3 29 -0.9 30.4
09:25 1016 30 845 24.95 18 64.4 27 -1.4 29.5
09:30 1015 29.97 845 24.95 18.9 66 25 -1.3 29.6
09:35 1015 29.97 845 24.95 19.1 66.4 26 -0.5 31
09:40 1015 29.97 845 24.95 19.6 67.2 25 -0.9 30.4
09:45 1015 29.97 845 24.95 19.6 67.3 25 -0.8 30.5
09:50 1015 29.97 845 24.95 19.7 67.5 24 -1.2 29.8
09:55 1015 29.97 845 24.95 20 67.9 23 -1.9 28.6
10:00 1015 29.97 845 24.95 20.1 68.2 22 -2 28.5
10:05 1015 29.97 845 24.95 19.9 67.8 24 -1.3 29.7
10:10 1015 29.97 844 24.92 20.1 68.2 23 -1.5 29.3
10:15 1015 29.97 844 24.92 20.2 68.3 23 -1.3 29.6
10:20 1015 29.97 844 24.92 20.3 68.6 23 -1.3 29.7
10:25 1015 29.97 844 24.92 20.3 68.5 23 -1.2 29.9
10:30 1015 29.97 844 24.92 20.3 68.6 23 -1.1 30
10:35 1015 29.97 844 24.92 20.8 69.5 22 -1.2 29.8
10:40 1015 29.97 844 24.92 21.5 70.7 21 -1.6 29.1
10:45 1015 29.97 844 24.92 20.5 68.9 25 -0.1 31.7
10:50 1015 29.97 844 24.92 20.7 69.3 23 -1.2 29.8
10:55 1015 29.97 844 24.92 21.8 71.2 21 -1.1 30.1
11:00 1015 29.97 844 24.92 20.8 69.4 23 -1 30.2
11:05 1015 29.97 844 24.92 21.1 70 21 -1.6 29.1
11:10 1015 29.97 844 24.92 21.6 71 22 -1 30.2
11:15 1015 29.97 844 24.92 21.8 71.2 21 -1.1 30
11:20 1015 29.97 844 24.92 21.5 70.6 22 -1.2 29.8
11:25 1015 29.97 844 24.92 21.3 70.4 21 -1.6 29.2
11:30 1015 29.97 844 24.92 21.6 70.8 23 -0.5 31
11:35 1015 29.97 844 24.92 21.2 70.1 21 -1.9 28.6
11:40 1015 29.97 844 24.92 21.2 70.2 22 -1.3 29.6
11:45 1015 29.97 844 24.92 20.9 69.7 23 -1 30.1
11:50 1015 29.97 844 24.92 20.8 69.5 22 -1.4 29.5
11:55 1015 29.97 844 24.92 21.3 70.3 23 -0.6 30.9
12:00 1015 29.97 844 24.92 21.7 71 22 -1.1 30.1
12:05 1015 29.97 844 24.92 21.3 70.3 22 -1 30.2
12:10 1015 29.97 844 24.92 21.6 70.9 23 -0.4 31.3
12:15 1015 29.97 844 24.92 21.7 71.1 21 -1.3 29.6
12:20 1015 29.97 844 24.92 22.1 71.7 20 -1.4 29.4
12:25 1015 29.97 844 24.92 21.9 71.3 21 -1.5 29.2
12:30 1015 29.97 844 24.92 22.1 71.7 21 -1.4 29.5
12:35 1015 29.97 844 24.92 20.9 69.6 21 -2.2 28.1
12:40 1015 29.97 844 24.92 21.8 71.3 21 -1.1 30.1
12:45 1015 29.97 844 24.92 22 71.5 20 -1.6 29.1
12:50 1015 29.97 844 24.92 22.1 71.8 20 -1.8 28.8
12:55 1015 29.97 844 24.92 22.1 71.9 20 -1.6 29.1
13:00 1015 29.97 844 24.92 21.3 70.3 20 -2.3 27.9
13:05 1015 29.97 844 24.92 21.6 71 21 -1.5 29.3
13:10 1015 29.97 844 24.92 21.9 71.5 21 -1.3 29.6
13:15 1015 29.97 844 24.92 22.2 71.9 21 -1.1 30.1
13:20 1015 29.97 844 24.92 22.4 72.4 20 -1.3 29.7
13:25 1015 29.97 844 24.92 22 71.5 20 -1.8 28.8
13:30 1015 29.97 844 24.92 22.4 72.2 20 -1.5 29.4
13:35 1015 29.97 844 24.92 23 73.4 18 -2 28.4
13:40 1015 29.97 844 24.92 23.6 74.5 19 -1.3 29.6
13:45 1015 29.97 844 24.92 23.9 74.9 18 -1.8 28.8
13:50 1015 29.97 844 24.92 22.8 73.1 19 -1.8 28.8
13:55 1015 29.97 844 24.92 22.1 71.7 20 -1.9 28.6
14:00 1015 29.97 844 24.92 22.4 72.3 21 -1 30.2
14:05 1015 29.97 844 24.92 21.8 71.2 21 -1.2 29.8
14:10 1015 29.97 844 24.92 21.7 71.1 23 -0.3 31.5
14:15 1015 29.97 844 24.92 21 69.7 23 -0.7 30.7
14:20 1015 29.97 844 24.92 20.9 69.6 22 -1.1 29.9
14:25 1015 29.97 844 24.92 20.7 69.2 24 -0.7 30.8
14:30 1015 29.97 844 24.92 20.7 69.3 24 -0.6 31
14:35 1015 29.97 844 24.92 20.5 69 23 -1.3 29.7
14:40 1015 29.97 844 24.92 20.8 69.4 22 -1.5 29.3
14:45 1014 29.94 844 24.92 20.7 69.3 24 -0.6 30.9
14:50 1015 29.97 844 24.92 20.5 68.9 24 -0.9 30.4
14:55 1015 29.97 844 24.92 20.3 68.6 23 -1.1 30.1
15:00 1015 29.97 844 24.92 20.1 68.2 24 -0.9 30.3
15:05 1015 29.97 844 24.92 20 68 25 -0.5 31.1
15:10 1015 29.97 844 24.92 20 68 27 0.5 32.8
15:15 1015 29.97 844 24.92 18.2 64.8 33 1.7 35.1
15:20 1015 29.97 844 24.92 17.2 62.9 37 2.4 36.2
15:25 1015 29.97 844 24.92 16.7 62 35 1.5 34.6
15:30 1015 29.97 844 24.92 16.6 61.8 38 2.2 35.9
15:35 1015 29.97 844 24.92 16.6 61.9 37 1.9 35.4
15:40 1015 29.97 844 24.92 16.6 61.9 42 3.6 38.5
15:45 1015 29.97 844 24.92 16.2 61.1 37 1.6 34.9
15:50 1015 29.97 844 24.92 16.2 61.1 40 2.8 37.1
15:55 1015 29.97 844 24.92 15.6 60.1 43 3.3 37.9
16:00 1015 29.97 845 24.95 15.4 59.8 43 2.9 37.3
16:05 1015 29.97 845 24.95 15.5 59.9 43 3.2 37.7
16:10 1016 30 845 24.95 15.1 59.1 46 3.7 38.6
16:15 1016 30 845 24.95 14.8 58.6 50 4.6 40.2
16:20 1016 30 845 24.95 14.6 58.2 49 4.1 39.5
16:25 1016 30 845 24.95 14.6 58.2 48 3.7 38.7
16:30 1016 30 845 24.95 15 59 48 4.2 39.5
16:35 1016 30 845 24.95 15.7 60.2 45 3.8 38.8
16:40 1016 30 845 24.95 15.9 60.6 48 5 41.1
16:45 1016 30 845 24.95 15 59.1 50 4.7 40.4
16:50 1016 30 845 24.95 14.8 58.6 49 4.3 39.8
16:55 1016 30 846 24.98 14.4 57.8 49 3.9 39.1
17:00 1017 30.03 846 24.98 14.2 57.6 52 4.6 40.3
17:05 1017 30.03 846 24.98 14.2 57.5 47 3.1 37.6
17:10 1017 30.03 846 24.98 14 57.2 56 5.4 41.8
17:15 1017 30.03 846 24.98 13.3 55.9 59 5.5 41.9
17:15 1017 30.03 846 24.98 13.3 55.9 59 5.5 41.9
17:20 1017 30.03 846 24.98 13.3 55.9 55 4.4 40
17:20 1017 30.03 846 24.98 13.3 55.9 55 4.4 40
17:20 1017 30.03 846 24.98 13.3 55.9 55 4.4 40
17:20 1017 30.03 846 24.98 13.3 55.9 55 4.4 40
17:20 1017 30.03 846 24.98 13.3 55.9 55 4.4 40
23:40 1019 30.09 848 25.04 11 51.8 62 3.9 39
23:45 1019 30.09 848 25.04 10.8 51.4 63 4 39.2
17:20 1017 30.03 846 24.98 13.3 55.9 55 4.4 40
20:15 1018 30.06 847 25.01 11.5 52.7 64 4.9 40.9
20:20 1018 30.06 847 25.01 11.5 52.7 63 4.8 40.6
20:25 1018 30.06 847 25.01 11.4 52.4 65 5.1 41.1
20:30 1018 30.06 847 25.01 11.1 52 65 4.9 40.8
20:35 1018 30.06 847 25.01 11.1 52 63 4.4 40
20:40 1018 30.06 847 25.01 11.3 52.4 63 4.6 40.3
20:45 1018 30.06 847 25.01 11.5 52.6 63 4.8 40.6
20:50 1018 30.06 847 25.01 11.6 52.9 62 4.5 40.2
20:55 1018 30.06 848 25.04 11.6 52.8 64 5.1 41.1
21:00 1018 30.06 848 25.04 11.1 52 66 5 40.9
21:05 1018 30.06 848 25.04 11.2 52.1 58 3.3 37.9
17:20 1017 30.03 846 24.98 13.3 55.9 55 4.4 40
17:25 1016 30 846 24.98 13.6 56.5 55 4.9 40.8
17:30 1017 30.03 846 24.98 13.5 56.2 57 5.1 41.2
17:35 1017 30.03 846 24.98 13.4 56.1 60 5.9 42.6
17:40 1017 30.03 846 24.98 13.2 55.8 59 5.5 41.8
17:45 1017 30.03 846 24.98 13.5 56.3 54 4.5 40.1
17:50 1017 30.03 846 24.98 13.6 56.5 57 5.4 41.7
17:55 1017 30.03 846 24.98 13.4 56.2 58 5.3 41.6
18:00 1017 30.03 846 24.98 13.3 55.9 60 5.7 42.3
18:05 1017 30.03 846 24.98 13.1 55.5 58 5.1 41.2
18:10 1017 30.03 846 24.98 13 55.4 60 5.4 41.7
18:15 1017 30.03 846 24.98 13.1 55.6 56 4.5 40.1
18:20 1017 30.03 846 24.98 13.5 56.3 55 4.6 40.2
18:25 1017 30.03 847 25.01 13.3 56 58 5.3 41.5
18:30 1017 30.03 846 24.98 13.1 55.5 57 4.8 40.6
18:35 1017 30.03 846 24.98 12.9 55.1 59 5.1 41.3
18:40 1017 30.03 846 24.98 12.8 55.1 58 4.8 40.6
18:45 1017 30.03 846 24.98 12.8 55 59 5 41
18:50 1017 30.03 846 24.98 13 55.3 57 4.6 40.3
18:55 1017 30.03 846 24.98 12.9 55.3 60 5.3 41.6
19:00 1017 30.03 847 25.01 12.9 55.1 56 4.4 40
19:05 1018 30.06 847 25.01 12.8 55.1 60 5.3 41.6
19:10 1018 30.06 847 25.01 12.8 55 58 4.7 40.5
19:15 1018 30.06 847 25.01 12.9 55.2 60 5.3 41.6
19:20 1018 30.06 847 25.01 12.6 54.7 62 5.6 42.1
19:25 1018 30.06 847 25.01 12.6 54.7 60 5.2 41.4
19:30 1018 30.06 847 25.01 12.9 55.2 50 2.9 37.1
19:35 1018 30.06 847 25.01 13.7 56.6 50 3.6 38.5
19:40 1018 30.06 847 25.01 13.6 56.5 54 4.6 40.3
19:45 1018 30.06 847 25.01 13.2 55.7 60 5.6 42.1
19:50 1018 30.06 847 25.01 12.5 54.6 63 5.7 42.3
19:55 1018 30.06 847 25.01 12 53.5 66 5.8 42.5
20:00 1018 30.06 847 25.01 11.6 52.9 66 5.5 41.8
20:05 1018 30.06 847 25.01 11.5 52.7 66 5.5 41.9
20:10 1018 30.06 847 25.01 11.4 52.5 65 5.1 41.2
20:15 1018 30.06 847 25.01 11.5 52.7 64 4.9 40.9
21:10 1018 30.06 848 25.04 12 53.5 54 3 37.4
21:15 1018 30.06 848 25.04 12.6 54.6 57 4.4 39.9
21:20 1018 30.06 848 25.04 11.8 53.3 60 4.5 40
21:25 1019 30.09 848 25.04 11.3 52.4 61 4.1 39.4
21:30 1019 30.09 848 25.04 11.2 52.2 61 4 39.2
21:35 1019 30.09 848 25.04 11.3 52.3 61 3.9 39.1
21:40 1019 30.09 848 25.04 11.4 52.5 59 3.6 38.5
21:45 1019 30.09 848 25.04 11.4 52.6 59 3.9 39
21:50 1019 30.09 848 25.04 11.7 53 59 3.9 39
21:55 1019 30.09 848 25.04 11.6 52.9 59 3.9 39.1
22:00 1019 30.09 848 25.04 11.2 52.2 60 3.8 38.8
22:05 1019 30.09 848 25.04 11.2 52.1 60 3.7 38.6
22:10 1019 30.09 848 25.04 11.4 52.5 59 3.8 38.8
22:15 1019 30.09 848 25.04 11.1 52 59 3.3 38
22:20 1019 30.09 848 25.04 11.4 52.6 56 3 37.4
22:25 1019 30.09 848 25.04 11.7 53 57 3.5 38.2
22:30 1019 30.09 848 25.04 11.6 52.9 58 3.6 38.5
22:35 1019 30.09 848 25.04 11.4 52.5 59 3.8 38.8
22:40 1019 30.09 848 25.04 11.2 52.2 63 4.4 39.9
22:45 1019 30.09 848 25.04 11 51.8 64 4.4 40
22:50 1019 30.09 848 25.04 10.9 51.7 64 4.3 39.8
22:55 1019 30.09 848 25.04 11 51.8 64 4.6 40.2
23:00 1019 30.09 848 25.04 11 51.8 63 4.3 39.7
23:05 1019 30.09 848 25.04 11 51.8 63 4.4 39.9
23:10 1019 30.09 848 25.04 11 51.8 64 4.5 40
23:15 1019 30.09 848 25.04 11 51.7 65 4.6 40.3
23:20 1019 30.09 848 25.04 10.9 51.6 64 4.5 40.1
23:25 1019 30.09 848 25.04 10.8 51.5 64 4.3 39.8
23:30 1019 30.09 848 25.04 11 51.8 62 4 39.2
23:35 1019 30.09 848 25.04 11 51.8 61 3.9 39.1
23:40 1019 30.09 848 25.04 11 51.8 62 3.9 39
23:50 1019 30.09 849 25.07 10.5 51 62 3.6 38.5
23:55 1019 30.09 849 25.07 10.1 50.1 62 3.1 37.6
24:00 1019 30.09 849 25.07 10.1 50.1 61 3 37.4